Time;durP1;ratioP1;P1;durP2;ratioP2;P2;SDS_P1;SDS_P2;PMS_P1;PMS_P2;Temp;Humidity;BMP_temperature;BMP_pressure;BME280_temperature;BME280_humidity;BME280_pressure;Samples;Min_cycle;Max_cycle;Signal;HPM_P1;HPM_P2
2022/04/17 00:02:02;;;;;;;2.03;0.40;;;6.70;99.90;;;;;;5000671;28;20037;-76
2022/04/17 00:04:28;;;;;;;1.20;0.50;;;6.80;99.90;;;;;;5018895;28;20029;-76
2022/04/17 00:06:54;;;;;;;1.17;0.40;;;6.80;99.90;;;;;;5019054;28;20037;-76
2022/04/17 00:09:20;;;;;;;1.83;0.40;;;6.70;99.90;;;;;;5018994;28;20040;-76
2022/04/17 00:11:46;;;;;;;1.30;0.40;;;6.60;99.90;;;;;;5016116;28;20033;-76
2022/04/17 00:14:12;;;;;;;1.65;0.47;;;6.60;99.90;;;;;;5018982;28;20022;-76
2022/04/17 00:16:40;;;;;;;1.00;0.50;;;6.60;99.90;;;;;;5019285;28;20397;-76
2022/04/17 00:19:06;;;;;;;0.75;0.30;;;6.50;99.90;;;;;;5001877;28;20036;-76
2022/04/17 00:21:33;;;;;;;1.35;0.40;;;6.50;99.90;;;;;;5018558;28;20103;-76
2022/04/17 00:23:59;;;;;;;0.82;0.30;;;6.40;99.90;;;;;;4976334;28;20041;-75
2022/04/17 00:26:24;;;;;;;1.13;0.40;;;6.40;99.90;;;;;;5019115;28;20053;-76
2022/04/17 00:28:50;;;;;;;1.63;0.45;;;6.20;99.90;;;;;;5018364;28;20032;-76
2022/04/17 00:31:16;;;;;;;1.35;0.40;;;6.20;99.90;;;;;;5001086;28;20037;-76
2022/04/17 00:33:41;;;;;;;1.45;0.40;;;6.10;99.90;;;;;;4985803;28;20021;-76
2022/04/17 00:36:07;;;;;;;1.58;0.40;;;6.10;99.90;;;;;;5017855;28;20052;-75
2022/04/17 00:38:32;;;;;;;2.30;0.40;;;6.10;99.90;;;;;;5018489;28;20139;-76
2022/04/17 00:40:58;;;;;;;1.42;0.47;;;6.00;99.90;;;;;;5000903;28;20073;-76
2022/04/17 00:43:31;;;;;;;2.33;0.60;;;6.00;99.90;;;;;;5018457;28;20030;-76
2022/04/17 00:45:57;;;;;;;2.10;0.60;;;6.00;99.90;;;;;;5018061;28;20029;-76
2022/04/17 00:48:24;;;;;;;1.48;0.50;;;6.00;99.90;;;;;;5001182;28;20052;-76
2022/04/17 00:50:51;;;;;;;1.50;0.50;;;6.00;99.90;;;;;;5016429;28;20053;-75
2022/04/17 00:53:18;;;;;;;1.45;0.50;;;6.00;99.90;;;;;;4994464;28;20409;-76
2022/04/17 00:55:46;;;;;;;1.42;0.45;;;5.90;99.90;;;;;;5016971;28;20108;-76
2022/04/17 00:58:14;;;;;;;1.63;0.55;;;6.00;99.90;;;;;;5018595;28;20736;-77
2022/04/17 01:00:43;;;;;;;1.70;0.80;;;6.00;99.90;;;;;;4999788;28;20038;-76
2022/04/17 01:03:12;;;;;;;1.63;0.47;;;5.90;99.90;;;;;;5001037;28;20033;-77
2022/04/17 01:05:43;;;;;;;1.02;0.45;;;5.80;99.90;;;;;;5017654;28;20041;-76
2022/04/17 01:08:12;;;;;;;1.80;0.50;;;5.80;99.90;;;;;;5015836;28;20037;-76
2022/04/17 01:10:39;;;;;;;1.60;0.60;;;5.70;99.90;;;;;;5017607;28;20049;-76
2022/04/17 01:13:08;;;;;;;1.70;0.60;;;5.70;99.90;;;;;;5016140;28;20627;-76
2022/04/17 01:15:35;;;;;;;1.50;0.50;;;5.60;99.90;;;;;;5018657;28;20033;-76
2022/04/17 01:18:00;;;;;;;2.13;0.50;;;5.60;99.90;;;;;;5017550;28;20592;-76
2022/04/17 01:20:26;;;;;;;2.80;0.60;;;5.40;99.90;;;;;;5000653;28;20057;-76
2022/04/17 01:26:56;;;;;;;1.92;0.60;;;5.40;99.90;;;;;;4989948;28;20088;-76
2022/04/17 01:28:26;;;;;;;1.63;0.57;;;5.50;99.90;;;;;;5017485;28;20112;-77
2022/04/17 01:30:56;;;;;;;2.65;0.73;;;5.40;99.90;;;;;;5018035;28;20087;-77
2022/04/17 01:33:23;;;;;;;1.88;0.60;;;5.30;99.90;;;;;;5016234;28;20049;-76
2022/04/17 01:35:48;;;;;;;1.65;0.55;;;5.20;99.90;;;;;;4999520;28;20541;-77
2022/04/17 01:38:15;;;;;;;2.22;0.98;;;5.10;99.90;;;;;;4998445;28;20040;-77
2022/04/17 01:40:41;;;;;;;2.50;0.60;;;5.00;99.90;;;;;;5017529;28;20073;-76
2022/04/17 01:43:10;;;;;;;2.05;0.77;;;4.90;99.90;;;;;;5018120;28;20029;-76
2022/04/17 01:45:36;;;;;;;3.55;0.90;;;4.80;99.90;;;;;;5017864;28;20045;-76
2022/04/17 01:48:03;;;;;;;2.97;0.77;;;4.70;99.90;;;;;;4993679;28;20033;-76
2022/04/17 01:50:30;;;;;;;2.08;0.90;;;4.60;99.90;;;;;;5017000;28;20230;-76
2022/04/17 01:53:00;;;;;;;4.55;0.90;;;4.60;99.90;;;;;;5017856;28;20497;-76
2022/04/17 01:55:29;;;;;;;3.05;0.88;;;4.40;99.90;;;;;;5018648;28;20052;-76
2022/04/17 01:57:56;;;;;;;2.75;0.80;;;4.40;99.90;;;;;;4999987;28;20116;-76
2022/04/17 02:00:22;;;;;;;3.10;0.80;;;4.40;99.90;;;;;;5000784;28;20065;-76
2022/04/17 02:02:48;;;;;;;1.92;1.15;;;4.30;99.90;;;;;;5016062;28;20033;-76
2022/04/17 02:05:14;;;;;;;3.05;0.70;;;4.30;99.90;;;;;;5017550;28;20378;-76
2022/04/17 02:07:40;;;;;;;2.40;0.70;;;4.20;99.90;;;;;;5017071;28;20445;-76
2022/04/17 02:10:06;;;;;;;2.00;0.77;;;4.20;99.90;;;;;;4982434;28;20034;-76
2022/04/17 02:12:33;;;;;;;2.50;0.90;;;4.20;99.90;;;;;;5017445;28;20061;-76
2022/04/17 02:14:59;;;;;;;2.17;0.70;;;4.10;99.90;;;;;;4996091;28;21854;-76
2022/04/17 02:17:25;;;;;;;2.25;0.90;;;4.10;99.90;;;;;;5000496;28;20068;-76
2022/04/17 02:19:51;;;;;;;2.70;1.00;;;3.90;99.90;;;;;;5016273;28;20021;-76
2022/04/17 02:22:17;;;;;;;3.28;0.80;;;3.90;99.90;;;;;;4999433;28;20033;-75
2022/04/17 02:24:42;;;;;;;2.30;0.70;;;3.90;99.90;;;;;;5018071;28;20037;-76
2022/04/17 02:27:08;;;;;;;3.03;0.88;;;3.90;99.90;;;;;;5017120;28;20044;-76
2022/04/17 02:29:34;;;;;;;2.88;0.88;;;3.80;99.90;;;;;;5017851;28;20036;-76
2022/04/17 02:31:59;;;;;;;2.67;0.90;;;3.80;99.90;;;;;;5004612;28;20262;-76
2022/04/17 02:34:25;;;;;;;2.78;0.73;;;3.70;99.90;;;;;;4999895;28;20453;-76
2022/04/17 02:36:50;;;;;;;2.47;0.80;;;3.70;99.90;;;;;;4994278;28;20241;-76
2022/04/17 02:39:16;;;;;;;2.65;1.02;;;3.60;99.90;;;;;;4999209;28;20127;-76
2022/04/17 02:41:42;;;;;;;2.28;0.90;;;3.60;99.90;;;;;;5000198;28;20048;-75
2022/04/17 02:44:07;;;;;;;2.40;0.80;;;3.50;99.90;;;;;;5005751;28;20029;-77
2022/04/17 02:49:17;;;;;;;2.10;0.70;;;3.50;99.90;;;;;;5018027;28;22161;-75
2022/04/17 02:51:42;;;;;;;2.10;0.80;;;3.50;99.90;;;;;;5004256;28;20026;-76
2022/04/17 02:54:08;;;;;;;2.33;0.73;;;3.40;99.90;;;;;;5021315;28;20041;-77
2022/04/17 02:56:33;;;;;;;2.33;0.85;;;3.40;99.90;;;;;;5021176;28;20035;-76
2022/04/17 02:58:59;;;;;;;3.17;1.00;;;3.40;99.90;;;;;;4996709;28;20033;-76
2022/04/17 03:06:54;;;;;;;2.20;0.80;;;3.30;99.90;;;;;;5003259;28;20072;-76
2022/04/17 03:09:19;;;;;;;1.98;0.73;;;3.30;99.90;;;;;;5019403;28;20116;-76
2022/04/17 03:11:45;;;;;;;1.98;0.80;;;3.40;99.90;;;;;;5021183;28;20204;-76
2022/04/17 03:14:10;;;;;;;2.53;0.80;;;3.40;99.90;;;;;;5020202;28;20031;-76
2022/04/17 03:16:36;;;;;;;2.20;0.77;;;3.40;99.90;;;;;;5005247;28;20553;-76
2022/04/17 03:19:02;;;;;;;2.47;0.90;;;3.30;99.90;;;;;;5019429;28;20052;-76
2022/04/17 03:21:28;;;;;;;2.47;0.85;;;3.30;99.90;;;;;;5020478;28;20037;-76
2022/04/17 03:23:54;;;;;;;1.92;0.80;;;3.20;99.90;;;;;;5003556;28;20037;-76
2022/04/17 03:26:19;;;;;;;2.20;0.85;;;3.20;99.90;;;;;;4987445;28;20429;-76
2022/04/17 03:28:45;;;;;;;2.47;0.95;;;3.10;99.90;;;;;;5001805;28;20144;-75
2022/04/17 03:31:10;;;;;;;2.05;0.80;;;3.20;99.90;;;;;;5022012;28;20120;-74
2022/04/17 03:33:36;;;;;;;1.88;0.85;;;3.10;99.90;;;;;;5020825;28;20371;-76
2022/04/17 03:36:02;;;;;;;1.83;0.82;;;3.10;99.90;;;;;;5002752;28;20482;-76
2022/04/17 03:38:28;;;;;;;2.17;0.95;;;3.10;99.90;;;;;;4985654;28;20453;-75
2022/04/17 03:40:53;;;;;;;2.40;1.00;;;3.20;99.90;;;;;;5017934;28;20045;-75
2022/04/17 03:43:22;;;;;;;1.90;0.77;;;3.00;99.90;;;;;;5008284;28;20029;-75
2022/04/17 03:45:49;;;;;;;2.50;0.90;;;3.00;99.90;;;;;;5019696;28;20037;-76
2022/04/17 03:48:18;;;;;;;2.08;0.88;;;3.10;99.90;;;;;;5019774;28;20029;-75
2022/04/17 03:50:44;;;;;;;3.20;0.90;;;3.10;99.90;;;;;;5018425;28;20036;-76
2022/04/17 03:53:10;;;;;;;2.90;1.08;;;3.10;99.90;;;;;;5001308;28;20505;-76
2022/04/17 03:55:36;;;;;;;2.67;1.33;;;2.90;99.90;;;;;;5020762;28;20029;-77
2022/04/17 03:58:02;;;;;;;2.45;1.02;;;2.80;99.90;;;;;;5002199;28;20128;-75
2022/04/17 04:00:28;;;;;;;2.97;0.90;;;2.70;99.90;;;;;;4978833;28;20081;-76
2022/04/17 04:02:53;;;;;;;2.50;1.08;;;2.80;99.90;;;;;;5002202;28;20045;-76
2022/04/17 04:05:19;;;;;;;3.60;1.08;;;2.80;99.90;;;;;;5018184;28;20061;-76
2022/04/17 04:07:46;;;;;;;5.13;1.42;;;2.70;99.90;;;;;;4994300;28;20045;-76
2022/04/17 04:10:12;;;;;;;3.65;1.30;;;2.80;99.90;;;;;;5018148;28;20056;-76
2022/04/17 04:12:38;;;;;;;5.00;1.23;;;2.70;99.90;;;;;;5020730;28;20446;-76
2022/04/17 04:15:06;;;;;;;2.45;1.27;;;2.60;99.90;;;;;;5018646;28;20490;-76
2022/04/17 04:17:32;;;;;;;2.63;1.33;;;2.60;99.90;;;;;;5001813;28;20528;-75
2022/04/17 04:19:57;;;;;;;1.92;0.82;;;2.50;99.90;;;;;;4970490;28;20037;-75
2022/04/17 04:22:23;;;;;;;2.13;0.98;;;2.50;99.90;;;;;;5019224;28;20037;-76
2022/04/17 04:24:49;;;;;;;3.38;1.30;;;2.60;99.90;;;;;;5019446;28;20041;-75
2022/04/17 04:29:59;;;;;;;2.00;0.90;;;2.40;99.90;;;;;;5018160;28;20033;-75
2022/04/17 04:32:25;;;;;;;2.45;0.90;;;2.40;99.90;;;;;;4995524;28;20030;-76
2022/04/17 04:34:50;;;;;;;2.45;1.00;;;2.40;99.90;;;;;;4996137;28;20454;-76
2022/04/17 04:37:16;;;;;;;2.95;0.68;;;2.40;99.90;;;;;;4992385;28;20142;-75
2022/04/17 04:39:42;;;;;;;2.08;0.73;;;2.50;99.90;;;;;;5002750;28;20068;-75
2022/04/17 04:42:07;;;;;;;3.30;0.80;;;2.60;99.90;;;;;;5000728;28;20057;-75
2022/04/17 04:44:33;;;;;;;3.22;0.90;;;2.60;99.90;;;;;;5018838;28;20041;-75
2022/04/17 04:46:59;;;;;;;2.65;0.85;;;2.50;99.90;;;;;;5019775;28;20037;-75
2022/04/17 04:49:30;;;;;;;1.80;0.80;;;2.60;99.90;;;;;;5006599;28;20029;-75
2022/04/17 04:51:57;;;;;;;2.00;0.73;;;2.50;99.90;;;;;;5016888;28;20117;-76
2022/04/17 04:54:23;;;;;;;2.05;0.73;;;2.50;99.90;;;;;;5006453;28;20124;-75
2022/04/17 04:57:04;;;;;;;2.70;1.02;;;2.50;99.90;;;;;;5076190;27;20456;-77
2022/04/17 04:59:30;;;;;;;2.25;0.98;;;2.50;99.90;;;;;;5075596;28;20107;-77
2022/04/17 05:01:55;;;;;;;2.53;0.90;;;2.40;99.90;;;;;;5073845;28;20040;-77
2022/04/17 05:04:21;;;;;;;1.85;0.70;;;2.40;99.90;;;;;;5076070;28;20017;-77
2022/04/17 05:06:47;;;;;;;2.22;0.90;;;2.50;99.90;;;;;;5075156;28;20051;-77
2022/04/17 05:09:13;;;;;;;1.88;0.80;;;2.60;99.90;;;;;;5107671;28;20026;-77
2022/04/17 05:11:39;;;;;;;2.42;1.13;;;2.70;99.90;;;;;;5058250;28;20438;-76
2022/04/17 05:14:11;;;;;;;3.05;1.00;;;2.80;99.90;;;;;;5066763;28;20396;-77
2022/04/17 05:16:38;;;;;;;4.65;1.50;;;2.60;99.90;;;;;;5073687;28;20469;-77
2022/04/17 05:19:19;;;;;;;3.03;1.25;;;2.80;99.90;;;;;;5074416;28;20036;-74
2022/04/17 05:21:47;;;;;;;2.72;0.85;;;2.90;99.90;;;;;;5075831;28;20056;-76
2022/04/17 05:24:14;;;;;;;2.88;1.02;;;2.60;99.90;;;;;;5075365;28;20060;-77
2022/04/17 05:26:39;;;;;;;3.25;1.08;;;2.60;99.90;;;;;;5080052;28;20047;-77
2022/04/17 05:29:05;;;;;;;3.33;1.33;;;2.50;99.90;;;;;;5075281;28;20028;-77
2022/04/17 05:31:30;;;;;;;3.10;1.02;;;2.60;99.90;;;;;;5074544;28;20228;-76
2022/04/17 05:33:56;;;;;;;2.75;1.45;;;2.60;99.90;;;;;;5074767;28;20499;-77
2022/04/17 05:36:22;;;;;;;2.85;1.08;;;2.80;99.90;;;;;;5075060;28;20078;-77
2022/04/17 05:38:47;;;;;;;2.50;0.93;;;3.00;99.90;;;;;;5074029;28;20684;-76
2022/04/17 05:41:13;;;;;;;2.83;1.15;;;3.10;99.90;;;;;;5073823;28;20141;-77
2022/04/17 05:43:39;;;;;;;2.90;1.08;;;3.30;99.90;;;;;;5065584;28;20058;-77
2022/04/17 05:46:05;;;;;;;2.60;1.00;;;3.30;99.90;;;;;;5067669;28;20503;-77
2022/04/17 05:48:31;;;;;;;2.10;1.17;;;3.30;99.90;;;;;;5074273;28;20032;-77
2022/04/17 05:50:56;;;;;;;3.85;1.40;;;3.50;99.90;;;;;;5071016;28;20032;-77
2022/04/17 05:53:22;;;;;;;2.83;1.15;;;3.60;99.90;;;;;;5073659;28;20139;-77
2022/04/17 05:55:48;;;;;;;2.92;1.17;;;3.70;99.90;;;;;;5074508;28;20036;-77
2022/04/17 05:58:14;;;;;;;3.33;1.38;;;3.80;99.90;;;;;;5073721;28;20024;-77
2022/04/17 06:00:42;;;;;;;3.95;1.50;;;3.90;99.90;;;;;;5080247;28;20039;-77
2022/04/17 06:03:08;;;;;;;3.33;1.73;;;4.00;99.90;;;;;;5065512;28;20448;-78
2022/04/17 06:05:33;;;;;;;3.58;1.65;;;4.10;99.90;;;;;;5073769;28;20024;-77
2022/04/17 06:07:59;;;;;;;3.65;1.35;;;4.10;99.90;;;;;;5063512;28;20031;-77
2022/04/17 06:10:24;;;;;;;4.10;1.42;;;4.30;99.90;;;;;;5060171;28;20094;-78
2022/04/17 06:12:50;;;;;;;2.95;1.25;;;4.20;99.90;;;;;;5092450;28;20028;-77
2022/04/17 06:15:15;;;;;;;3.35;1.38;;;4.30;99.90;;;;;;5061020;28;20068;-77
2022/04/17 06:17:42;;;;;;;2.30;1.15;;;4.50;99.90;;;;;;5060311;28;20063;-77
2022/04/17 06:20:10;;;;;;;3.33;1.27;;;4.70;99.90;;;;;;5060375;28;20058;-77
2022/04/17 06:22:36;;;;;;;3.83;1.23;;;4.80;99.90;;;;;;5052566;28;20051;-77
2022/04/17 06:25:06;;;;;;;2.75;1.52;;;5.00;99.90;;;;;;5065110;28;20028;-77
2022/04/17 06:27:36;;;;;;;;;;;5.20;99.90;;;;;;5092625;28;20043;-77
2022/04/17 06:30:10;;;;;;;2.65;0.90;;;5.40;99.90;;;;;;5059797;28;19999;-77
2022/04/17 06:32:35;;;;;;;3.10;1.10;;;5.80;99.90;;;;;;5060126;28;20040;-77
2022/04/17 06:35:01;;;;;;;2.42;1.02;;;6.00;99.90;;;;;;5059475;28;20040;-77
2022/04/17 06:37:27;;;;;;;4.13;1.48;;;6.30;99.90;;;;;;5060027;28;20035;-77
2022/04/17 06:39:52;;;;;;;2.05;0.90;;;6.50;99.90;;;;;;5059367;28;20020;-77
2022/04/17 06:42:18;;;;;;;2.40;1.20;;;6.80;99.90;;;;;;5058365;28;20029;-77
2022/04/17 06:44:43;;;;;;;5.13;1.20;;;7.10;99.90;;;;;;5052949;28;20060;-77
2022/04/17 06:47:09;;;;;;;2.22;0.77;;;7.30;99.90;;;;;;5057158;28;20028;-78
2022/04/17 06:49:34;;;;;;;4.03;1.92;;;7.60;99.90;;;;;;5059513;28;20089;-77
2022/04/17 06:52:00;;;;;;;2.40;0.90;;;8.00;99.90;;;;;;5059841;28;20476;-76
2022/04/17 06:54:26;;;;;;;2.40;0.95;;;8.20;99.90;;;;;;5059336;28;20048;-77
2022/04/17 06:56:51;;;;;;;3.45;0.80;;;8.50;99.90;;;;;;5059794;28;20052;-77
2022/04/17 06:59:17;;;;;;;3.45;1.05;;;8.70;99.90;;;;;;5074499;28;20119;-77
2022/04/17 07:01:43;;;;;;;2.83;0.90;;;8.90;99.90;;;;;;5055455;28;20637;-77
2022/04/17 07:04:08;;;;;;;4.50;0.90;;;9.00;99.90;;;;;;5059293;28;20111;-78
2022/04/17 07:06:34;;;;;;;3.25;0.80;;;9.20;99.90;;;;;;5092612;28;20433;-78
2022/04/17 07:09:00;;;;;;;2.58;1.00;;;9.30;99.90;;;;;;5057957;28;20021;-78
2022/04/17 07:11:26;;;;;;;3.10;0.70;;;9.40;99.90;;;;;;5059383;28;20473;-78
2022/04/17 07:13:51;;;;;;;3.72;0.95;;;9.70;99.90;;;;;;5046306;28;20025;-78
2022/04/17 07:16:17;;;;;;;3.65;0.80;;;9.70;99.90;;;;;;5057651;28;20099;-77
2022/04/17 07:18:44;;;;;;;1.92;0.73;;;9.90;99.90;;;;;;5057903;28;20119;-75
2022/04/17 07:21:09;;;;;;;2.13;0.70;;;10.00;99.90;;;;;;5051843;28;20046;-77
2022/04/17 07:23:35;;;;;;;4.43;1.10;;;10.10;99.90;;;;;;5091505;28;20036;-77
2022/04/17 07:26:00;;;;;;;2.58;0.90;;;10.20;99.90;;;;;;5050600;28;20135;-75
2022/04/17 07:28:26;;;;;;;3.83;1.02;;;10.30;99.90;;;;;;5051520;28;20028;-75
2022/04/17 07:30:52;;;;;;;3.25;0.73;;;10.40;99.90;;;;;;5088760;28;20039;-76
2022/04/17 07:33:18;;;;;;;3.20;1.40;;;10.70;99.90;;;;;;5058803;28;20032;-78
2022/04/17 07:35:44;;;;;;;3.03;0.90;;;10.70;99.90;;;;;;5073872;28;20048;-76
2022/04/17 07:38:10;;;;;;;2.15;0.80;;;10.80;99.90;;;;;;5060370;28;20024;-75
2022/04/17 07:40:36;;;;;;;2.10;0.80;;;10.80;99.90;;;;;;5057138;28;20497;-76
2022/04/17 07:43:03;;;;;;;2.35;0.90;;;10.90;99.90;;;;;;5054992;28;20170;-75
2022/04/17 07:45:32;;;;;;;2.10;0.70;;;11.10;99.90;;;;;;5056073;28;20060;-76
2022/04/17 07:47:57;;;;;;;3.47;1.40;;;11.30;99.90;;;;;;5070193;28;20084;-75
2022/04/17 07:50:26;;;;;;;2.47;1.13;;;11.50;99.90;;;;;;5058644;28;20052;-78
2022/04/17 07:52:53;;;;;;;1.63;0.70;;;11.40;99.90;;;;;;5055197;28;20044;-77
2022/04/17 07:55:20;;;;;;;2.72;0.70;;;11.80;99.90;;;;;;5058305;28;20048;-76
2022/04/17 07:58:04;;;;;;;2.40;0.90;;;12.00;99.90;;;;;;5010688;28;20426;-77
2022/04/17 08:00:48;;;;;;;2.05;0.80;;;11.90;99.90;;;;;;5013031;28;20056;-77
2022/04/17 08:03:24;;;;;;;1.95;0.70;;;11.90;99.90;;;;;;5012279;28;20025;-76
2022/04/17 08:05:51;;;;;;;2.38;0.90;;;12.00;99.90;;;;;;5014222;28;20026;-77
2022/04/17 08:08:17;;;;;;;3.38;0.73;;;12.10;99.90;;;;;;5028296;28;20470;-77
2022/04/17 08:10:43;;;;;;;2.13;0.70;;;12.20;99.90;;;;;;5012693;28;20029;-77
2022/04/17 08:13:08;;;;;;;3.25;0.70;;;12.50;99.90;;;;;;5013042;28;20037;-76
2022/04/17 08:15:34;;;;;;;1.75;0.80;;;12.50;99.90;;;;;;5027691;28;20041;-77
2022/04/17 08:18:00;;;;;;;1.98;0.80;;;12.70;99.90;;;;;;5013281;28;20041;-77
2022/04/17 08:20:25;;;;;;;1.67;0.52;;;12.90;99.90;;;;;;5011476;28;20452;-76
2022/04/17 08:22:51;;;;;;;1.42;0.57;;;13.10;99.90;;;;;;5012966;28;20121;-77
2022/04/17 08:25:17;;;;;;;2.45;0.68;;;12.90;99.90;;;;;;5013842;28;20040;-77
2022/04/17 08:27:50;;;;;;;1.80;0.70;;;13.00;99.90;;;;;;5013895;28;20030;-77
2022/04/17 08:30:24;;;;;;;2.53;0.95;;;13.20;99.90;;;;;;5013187;28;20040;-77
2022/04/17 08:32:49;;;;;;;2.17;0.70;;;12.80;99.90;;;;;;5013097;28;20034;-77
2022/04/17 08:35:16;;;;;;;1.42;0.50;;;13.10;99.90;;;;;;5022259;28;20037;-76
2022/04/17 08:37:43;;;;;;;2.05;0.60;;;13.50;99.90;;;;;;5011950;28;20037;-77
2022/04/17 08:40:09;;;;;;;2.67;0.70;;;13.60;99.90;;;;;;5022698;28;20116;-77
2022/04/17 08:42:37;;;;;;;1.77;0.50;;;13.40;99.90;;;;;;5012663;28;20072;-77
2022/04/17 08:45:03;;;;;;;1.60;0.50;;;13.70;99.90;;;;;;5012531;28;20033;-76
2022/04/17 08:47:30;;;;;;;1.77;0.50;;;14.00;99.90;;;;;;5017756;28;20025;-77
2022/04/17 08:49:56;;;;;;;1.77;0.50;;;14.10;99.90;;;;;;5026640;28;20041;-77
2022/04/17 08:52:22;;;;;;;1.30;0.50;;;14.30;99.90;;;;;;5012520;28;20052;-78
2022/04/17 08:54:49;;;;;;;3.20;0.65;;;14.40;99.90;;;;;;4993150;28;20047;-77
2022/04/17 08:57:16;;;;;;;1.20;0.50;;;14.40;99.90;;;;;;5009490;28;20038;-77
2022/04/17 08:59:42;;;;;;;1.48;0.40;;;14.40;99.90;;;;;;5027700;28;20080;-77
2022/04/17 09:02:12;;;;;;;1.40;0.50;;;14.50;99.90;;;;;;5007486;28;20124;-77
2022/04/17 09:04:41;;;;;;;1.70;0.32;;;14.70;99.90;;;;;;5011120;28;20116;-77
2022/04/17 09:07:10;;;;;;;1.20;0.40;;;14.80;99.90;;;;;;5009333;28;20056;-78
2022/04/17 09:09:53;;;;;;;1.65;0.50;;;14.40;99.90;;;;;;5012009;28;20045;-78
2022/04/17 09:12:19;;;;;;;1.85;0.75;;;14.70;99.90;;;;;;5013676;28;20037;-77
2022/04/17 09:14:46;;;;;;;1.80;0.50;;;14.60;99.90;;;;;;5013406;28;20029;-77
2022/04/17 09:17:11;;;;;;;2.58;0.50;;;14.70;99.90;;;;;;5011735;28;20042;-77
2022/04/17 09:19:37;;;;;;;1.42;0.43;;;14.60;99.90;;;;;;5011272;28;20052;-77
2022/04/17 09:22:05;;;;;;;1.20;0.50;;;14.80;99.90;;;;;;5009532;28;20120;-77
2022/04/17 09:24:35;;;;;;;1.05;0.40;;;15.10;99.90;;;;;;5026967;28;20030;-77
2022/04/17 09:27:01;;;;;;;;;;;15.20;99.90;;;;;;5009848;28;20037;-77
2022/04/17 09:29:38;;;;;;;1.92;0.40;;;15.10;99.90;;;;;;5009740;28;20657;-77
2022/04/17 09:32:12;;;;;;;1.63;0.50;;;15.30;99.90;;;;;;5010413;28;20040;-77
2022/04/17 09:34:44;;;;;;;1.35;0.60;;;15.40;99.90;;;;;;5012023;28;20381;-77
2022/04/17 09:37:21;;;;;;;1.40;0.60;;;15.10;99.90;;;;;;5026092;28;20037;-77
2022/04/17 09:39:48;;;;;;;1.48;0.57;;;15.10;99.90;;;;;;5027287;28;22408;-77
2022/04/17 09:42:20;;;;;;;2.53;0.60;;;15.40;99.90;;;;;;5013184;28;20394;-78
2022/04/17 09:44:47;;;;;;;1.58;0.60;;;15.30;99.90;;;;;;5029150;28;20034;-78
2022/04/17 09:47:20;;;;;;;3.20;0.50;;;15.50;99.90;;;;;;5014560;28;20029;-78
2022/04/17 09:49:58;;;;;;;2.10;0.40;;;15.80;99.90;;;;;;5014881;28;20064;-78
2022/04/17 09:52:31;;;;;;;1.30;0.47;;;15.90;99.90;;;;;;5014125;28;20025;-78
2022/04/17 09:54:58;;;;;;;1.30;0.40;;;15.90;99.90;;;;;;5014163;28;20050;-76
2022/04/17 09:57:31;;;;;;;2.53;0.40;;;16.30;99.90;;;;;;5019643;28;20129;-78
2022/04/17 10:00:04;;;;;;;0.73;0.40;;;16.50;99.90;;;;;;5014967;28;20032;-77
2022/04/17 10:02:30;;;;;;;1.20;0.32;;;16.30;99.90;;;;;;5027262;28;20041;-77
2022/04/17 10:04:57;;;;;;;1.02;0.30;;;16.60;99.90;;;;;;5013399;28;20036;-78
2022/04/17 10:07:24;;;;;;;1.15;0.30;;;16.60;99.90;;;;;;5014513;28;20490;-78
2022/04/17 10:09:50;;;;;;;0.90;0.25;;;16.60;99.90;;;;;;5029933;28;20029;-76
2022/04/17 10:12:19;;;;;;;0.90;0.30;;;17.30;99.90;;;;;;5020896;28;20030;-77
2022/04/17 10:14:50;;;;;;;1.67;0.30;;;16.80;99.90;;;;;;5016645;28;20109;-77
2022/04/17 10:17:23;;;;;;;0.70;0.20;;;16.90;99.90;;;;;;5016162;28;20041;-77
2022/04/17 10:19:50;;;;;;;1.58;0.30;;;16.80;99.90;;;;;;5020693;28;20479;-77
2022/04/17 10:22:18;;;;;;;0.70;0.20;;;16.80;99.90;;;;;;5016026;28;20038;-77
2022/04/17 10:24:54;;;;;;;1.33;0.30;;;16.90;99.90;;;;;;5015238;28;20244;-77
2022/04/17 10:27:26;;;;;;;1.15;0.30;;;16.90;99.90;;;;;;5015638;28;20142;-77
2022/04/17 10:30:08;;;;;;;0.70;0.30;;;17.00;99.90;;;;;;5013833;28;20041;-76
2022/04/17 10:32:58;;;;;;;0.95;0.30;;;17.30;99.90;;;;;;5013645;28;20026;-76
2022/04/17 10:35:52;;;;;;;1.30;0.30;;;17.50;99.90;;;;;;5029983;28;20037;-76
2022/04/17 10:38:31;;;;;;;0.82;0.20;;;17.20;99.90;;;;;;5030573;28;20033;-76
2022/04/17 10:41:05;;;;;;;1.58;0.28;;;17.70;99.90;;;;;;5028389;28;20454;-77
2022/04/17 10:43:33;;;;;;;1.20;0.30;;;17.90;99.90;;;;;;5014686;28;20132;-77
2022/04/17 10:46:11;;;;;;;0.95;0.30;;;17.60;99.30;;;;;;5018055;28;20041;-77
2022/04/17 10:48:57;;;;;;;1.40;0.30;;;17.70;98.70;;;;;;5012464;28;20099;-78
2022/04/17 10:51:30;;;;;;;1.48;0.22;;;17.70;98.00;;;;;;5014918;28;20114;-77
2022/04/17 10:54:03;;;;;;;1.25;0.20;;;17.80;98.30;;;;;;5013359;28;20037;-77
2022/04/17 10:56:33;;;;;;;0.77;0.20;;;17.90;98.80;;;;;;5013814;28;20497;-79
2022/04/17 10:59:01;;;;;;;0.95;0.30;;;17.90;97.40;;;;;;5014468;28;20026;-77
2022/04/17 11:01:53;;;;;;;1.55;0.20;;;17.90;98.10;;;;;;5014496;28;20040;-77
2022/04/17 11:04:30;;;;;;;1.20;0.25;;;18.30;97.40;;;;;;5014461;28;20038;-77
2022/04/17 11:07:23;;;;;;;1.45;0.30;;;18.20;98.00;;;;;;5013335;28;20461;-77
2022/04/17 11:10:22;;;;;;;1.75;0.30;;;18.40;97.90;;;;;;5010564;28;20124;-77
2022/04/17 11:12:56;;;;;;;0.97;0.27;;;17.70;98.60;;;;;;5014214;28;20496;-77
2022/04/17 11:15:24;;;;;;;0.65;0.20;;;17.80;99.20;;;;;;5027971;28;20041;-77
2022/04/17 11:17:50;;;;;;;1.17;0.30;;;18.40;98.20;;;;;;5013763;28;20676;-77
2022/04/17 11:20:16;;;;;;;1.77;0.20;;;18.30;97.50;;;;;;5012764;28;20045;-78
2022/04/17 11:22:42;;;;;;;0.75;0.40;;;18.30;98.20;;;;;;5014421;28;20663;-77
2022/04/17 11:25:09;;;;;;;0.90;0.20;;;18.40;98.20;;;;;;5011952;28;20044;-77
2022/04/17 11:27:49;;;;;;;1.17;0.30;;;18.50;97.60;;;;;;5014379;28;20303;-78
2022/04/17 11:30:14;;;;;;;1.08;0.32;;;18.30;97.00;;;;;;5012887;28;20553;-77
2022/04/17 11:32:40;;;;;;;1.10;0.30;;;18.40;95.90;;;;;;5028083;28;20146;-78
2022/04/17 11:35:14;;;;;;;0.82;0.30;;;18.50;96.70;;;;;;5013673;28;20041;-77
2022/04/17 11:37:51;;;;;;;1.13;0.20;;;18.80;97.80;;;;;;5012340;28;20026;-77
2022/04/17 11:40:17;;;;;;;1.05;0.20;;;18.60;96.40;;;;;;5012973;28;20460;-78
2022/04/17 11:42:53;;;;;;;0.82;0.30;;;18.70;97.10;;;;;;5012564;28;20085;-78
2022/04/17 11:45:21;;;;;;;1.20;0.28;;;18.80;97.20;;;;;;5013314;28;20038;-77
2022/04/17 11:47:48;;;;;;;0.70;0.30;;;19.10;96.80;;;;;;5010046;28;20459;-78
2022/04/17 11:50:41;;;;;;;2.35;0.55;;;19.00;96.00;;;;;;5027892;28;20033;-77
2022/04/17 11:53:15;;;;;;;1.08;0.30;;;17.80;96.50;;;;;;5010559;28;20088;-77
2022/04/17 11:55:45;;;;;;;1.35;0.30;;;18.50;96.90;;;;;;5010759;28;20469;-77
2022/04/17 11:58:31;;;;;;;1.40;0.40;;;18.90;96.20;;;;;;5013250;28;20040;-76
2022/04/17 12:01:01;;;;;;;2.60;0.40;;;18.70;96.20;;;;;;5012803;28;20056;-77
2022/04/17 12:03:46;;;;;;;1.00;0.28;;;18.70;95.80;;;;;;5012105;28;20025;-77
2022/04/17 12:06:12;;;;;;;0.70;0.25;;;18.80;95.40;;;;;;5011726;28;20049;-77
2022/04/17 12:08:38;;;;;;;0.77;0.30;;;18.60;95.80;;;;;;5010921;28;20038;-78
2022/04/17 12:11:06;;;;;;;0.90;0.35;;;18.70;95.60;;;;;;5012806;28;20112;-78
2022/04/17 12:13:32;;;;;;;1.23;0.40;;;18.90;96.20;;;;;;5017203;28;20041;-77
2022/04/17 12:16:03;;;;;;;1.90;0.40;;;19.00;96.20;;;;;;5011850;28;20038;-76
2022/04/17 12:18:29;;;;;;;1.17;0.40;;;18.90;94.20;;;;;;5027919;28;20386;-77
2022/04/17 12:21:02;;;;;;;1.02;0.30;;;19.00;94.70;;;;;;5028454;28;20033;-77
2022/04/17 12:23:29;;;;;;;1.67;0.30;;;19.00;94.40;;;;;;5029389;28;20053;-78
2022/04/17 12:25:55;;;;;;;1.42;0.30;;;18.90;94.90;;;;;;5011996;28;20117;-79
2022/04/17 12:28:22;;;;;;;0.95;0.30;;;19.20;95.60;;;;;;5011398;28;20146;-78
2022/04/17 12:30:48;;;;;;;1.58;0.30;;;19.30;94.50;;;;;;5013021;28;20041;-77
2022/04/17 12:33:22;;;;;;;0.65;0.20;;;19.30;94.50;;;;;;5006604;28;20035;-77
2022/04/17 12:36:02;;;;;;;1.23;0.30;;;19.40;94.30;;;;;;5028525;28;20092;-77
2022/04/17 12:38:27;;;;;;;;;;;19.20;93.40;;;;;;5011323;28;20033;-78
2022/04/17 12:40:53;;;;;;;0.70;0.28;;;19.20;94.50;;;;;;4995595;28;19943;-77
2022/04/17 12:43:20;;;;;;;1.02;0.20;;;19.50;93.10;;;;;;5016144;28;20034;-78
2022/04/17 12:46:04;;;;;;;0.93;0.20;;;19.30;93.40;;;;;;5009554;28;20653;-78
2022/04/17 12:48:34;;;;;;;0.50;0.20;;;19.20;93.60;;;;;;5024151;28;20099;-77
2022/04/17 12:51:05;;;;;;;1.30;0.20;;;19.50;93.30;;;;;;5028314;28;20112;-79
2022/04/17 12:53:36;;;;;;;0.55;0.20;;;19.50;92.70;;;;;;5010483;28;20046;-77
2022/04/17 12:56:02;;;;;;;0.63;0.20;;;19.30;91.50;;;;;;5025779;28;20054;-78
2022/04/17 12:58:28;;;;;;;1.50;0.20;;;19.50;93.40;;;;;;5026591;28;20034;-77
2022/04/17 13:00:58;;;;;;;0.82;0.30;;;19.50;93.00;;;;;;5010351;28;20110;-77
2022/04/17 13:03:34;;;;;;;2.38;0.30;;;19.30;91.80;;;;;;4993504;28;20067;-77
2022/04/17 13:06:00;;;;;;;0.60;0.20;;;19.30;91.70;;;;;;5010484;28;20048;-78
2022/04/17 13:08:26;;;;;;;0.65;0.20;;;19.30;91.90;;;;;;5009799;28;20124;-80
2022/04/17 13:10:51;;;;;;;0.82;0.30;;;19.90;92.20;;;;;;4994079;28;20482;-78
2022/04/17 13:13:17;;;;;;;1.05;0.25;;;20.00;92.10;;;;;;5016428;28;20036;-78